Time;durP1;ratioP1;P1;durP2;ratioP2;P2;SDS_P1;SDS_P2;PMS_P1;PMS_P2;Temp;Humidity;BMP_temperature;BMP_pressure;BME280_temperature;BME280_humidity;BME280_pressure;Samples;Min_cycle;Max_cycle;Signal;HPM_P1;HPM_P2
2022/06/12 00:02:11;;;;;;;4.13;1.00;;;13.60;84.40;;;;;;5034276;28;20026;-70
2022/06/12 00:04:39;;;;;;;3.47;0.88;;;13.70;84.10;;;;;;5034185;28;20470;-69
2022/06/12 00:07:07;;;;;;;4.20;0.75;;;13.80;83.50;;;;;;5036181;28;20507;-75
2022/06/12 00:09:34;;;;;;;3.35;1.02;;;13.90;83.80;;;;;;5038179;28;20044;-72
2022/06/12 00:12:01;;;;;;;3.50;1.15;;;13.90;83.80;;;;;;5033763;28;20304;-72
2022/06/12 00:14:29;;;;;;;4.63;0.80;;;14.00;83.20;;;;;;5033963;28;20017;-71
2022/06/12 00:16:56;;;;;;;4.68;1.00;;;14.00;83.20;;;;;;5033591;28;20022;-66
2022/06/12 00:19:24;;;;;;;2.92;1.15;;;14.20;82.80;;;;;;5035611;28;20033;-66
2022/06/12 00:21:53;;;;;;;4.38;0.75;;;14.20;82.70;;;;;;5053942;28;20534;-68
2022/06/12 00:24:21;;;;;;;2.53;0.75;;;14.30;82.20;;;;;;5053428;28;20120;-71
2022/06/12 00:26:52;;;;;;;2.78;0.60;;;14.30;82.20;;;;;;5044700;28;20028;-74
2022/06/12 00:29:23;;;;;;;2.72;0.90;;;14.30;81.90;;;;;;5032971;28;20029;-73
2022/06/12 00:32:04;;;;;;;4.50;1.00;;;14.50;82.50;;;;;;5036770;28;20355;-74
2022/06/12 00:34:35;;;;;;;2.92;0.73;;;14.50;82.60;;;;;;5053075;28;20025;-74
2022/06/12 00:37:03;;;;;;;5.70;0.90;;;14.60;81.20;;;;;;5044470;28;20021;-73
2022/06/12 00:39:32;;;;;;;2.78;0.57;;;14.60;81.50;;;;;;5033141;28;20035;-70
2022/06/12 00:42:02;;;;;;;2.30;0.55;;;14.70;81.30;;;;;;5033365;28;20386;-71
2022/06/12 00:44:36;;;;;;;3.25;0.73;;;14.70;81.80;;;;;;5040740;28;20104;-72
2022/06/12 00:47:11;;;;;;;4.55;1.25;;;14.80;81.20;;;;;;5042547;28;20018;-72
2022/06/12 00:49:50;;;;;;;4.25;0.85;;;14.80;80.90;;;;;;5038828;28;20017;-71
2022/06/12 00:52:45;;;;;;;2.38;0.63;;;14.70;80.40;;;;;;5051595;28;20041;-73
2022/06/12 00:55:37;;;;;;;2.83;0.60;;;14.80;80.70;;;;;;5050245;28;20090;-72
2022/06/12 00:58:11;;;;;;;3.28;0.80;;;14.90;80.60;;;;;;5026976;28;20680;-76
2022/06/12 01:00:40;;;;;;;5.82;1.00;;;15.00;80.60;;;;;;5049645;28;20109;-73
2022/06/12 01:03:08;;;;;;;3.65;0.75;;;15.00;80.40;;;;;;5051946;28;20232;-73
2022/06/12 01:08:23;;;;;;;2.90;0.60;;;15.20;80.20;;;;;;5053830;28;20546;-72
2022/06/12 01:10:56;;;;;;;4.57;0.80;;;15.30;80.20;;;;;;5051725;28;20086;-76
2022/06/12 01:13:35;;;;;;;3.17;0.70;;;15.30;79.80;;;;;;5049729;28;20096;-71
2022/06/12 01:16:11;;;;;;;4.45;0.60;;;15.40;78.80;;;;;;5011361;28;20022;-71
2022/06/12 01:18:44;;;;;;;3.92;0.60;;;15.40;78.90;;;;;;5011387;28;20621;-72
2022/06/12 01:21:33;;;;;;;2.40;0.60;;;15.50;78.80;;;;;;5012356;28;20642;-73
2022/06/12 01:24:10;;;;;;;2.05;0.60;;;15.60;78.80;;;;;;5048876;28;20037;-72
2022/06/12 01:27:01;;;;;;;1.98;0.50;;;15.70;78.40;;;;;;5038786;28;20021;-72
2022/06/12 01:30:14;;;;;;;3.95;0.93;;;15.70;78.90;;;;;;5052842;28;20085;-71
2022/06/12 01:32:57;;;;;;;3.15;0.88;;;15.90;78.60;;;;;;5043197;28;20036;-73
2022/06/12 01:35:36;;;;;;;6.10;0.82;;;15.90;77.90;;;;;;5043097;28;20478;-72
2022/06/12 01:38:38;;;;;;;2.22;0.45;;;16.00;78.70;;;;;;5036394;28;20048;-70
2022/06/12 01:41:24;;;;;;;1.52;0.60;;;16.10;78.00;;;;;;5036391;28;20494;-70
2022/06/12 01:44:11;;;;;;;2.75;0.50;;;16.30;77.70;;;;;;5050745;28;20397;-68
2022/06/12 01:46:55;;;;;;;1.88;0.70;;;16.30;77.30;;;;;;5045687;28;20158;-74
2022/06/12 01:49:31;;;;;;;3.22;0.70;;;16.50;77.70;;;;;;5052179;28;20513;-72
2022/06/12 01:52:25;;;;;;;1.52;0.50;;;16.60;76.10;;;;;;5051866;28;20029;-73
2022/06/12 01:55:02;;;;;;;1.10;0.57;;;16.70;75.50;;;;;;5062588;28;20386;-68
2022/06/12 01:57:38;;;;;;;6.72;0.90;;;16.80;75.50;;;;;;5031377;28;20033;-71
2022/06/12 02:00:15;;;;;;;2.53;0.52;;;16.90;75.30;;;;;;5032512;28;20025;-67
2022/06/12 02:03:08;;;;;;;2.80;0.73;;;17.00;75.30;;;;;;5031680;28;20021;-71
2022/06/12 02:05:57;;;;;;;1.45;0.70;;;17.10;75.00;;;;;;5038465;28;20051;-70
2022/06/12 02:08:41;;;;;;;2.13;0.73;;;17.10;73.90;;;;;;5050535;28;20481;-68
2022/06/12 02:14:15;;;;;;;2.73;0.70;;;17.10;73.70;;;;;;5052026;28;20086;-65
2022/06/12 02:16:47;;;;;;;1.92;0.60;;;17.20;73.90;;;;;;5050396;28;20151;-73
2022/06/12 02:19:26;;;;;;;5.22;1.40;;;17.30;74.00;;;;;;5051718;28;20036;-72
2022/06/12 02:22:09;;;;;;;5.07;0.80;;;17.30;74.10;;;;;;5052458;28;20025;-71
2022/06/12 02:24:44;;;;;;;3.00;1.08;;;17.40;74.00;;;;;;5052638;28;20041;-69
2022/06/12 02:27:19;;;;;;;3.92;0.77;;;17.50;73.10;;;;;;5053141;28;20025;-69
2022/06/12 02:29:46;;;;;;;1.50;0.45;;;17.50;71.90;;;;;;5051455;28;20020;-76
2022/06/12 02:32:34;;;;;;;2.95;1.08;;;17.70;72.30;;;;;;5052253;28;20028;-72
2022/06/12 02:35:41;;;;;;;3.17;0.93;;;18.00;71.80;;;;;;5067421;28;20063;-73
2022/06/12 02:38:23;;;;;;;1.70;0.60;;;18.10;71.10;;;;;;5051099;28;20397;-71
2022/06/12 02:41:00;;;;;;;5.37;0.87;;;18.00;70.50;;;;;;5051929;28;20078;-65
2022/06/12 02:43:33;;;;;;;1.95;0.88;;;18.00;71.40;;;;;;5052573;28;20253;-74
2022/06/12 02:46:10;;;;;;;4.50;1.00;;;18.30;70.50;;;;;;5052400;28;20043;-66
2022/06/12 02:48:38;;;;;;;3.63;0.70;;;18.70;70.50;;;;;;5052054;28;20029;-74
2022/06/12 02:51:30;;;;;;;1.92;0.70;;;19.20;69.10;;;;;;5052327;28;20053;-69
2022/06/12 02:54:13;;;;;;;;;;;19.40;68.10;;;;;;5052584;28;20048;-69
2022/06/12 02:57:11;;;;;;;2.90;0.73;;;19.80;67.20;;;;;;5052843;28;19912;-74
2022/06/12 03:00:07;;;;;;;2.13;0.80;;;19.70;66.20;;;;;;5052965;28;20097;-69
2022/06/12 03:02:57;;;;;;;5.03;0.82;;;19.60;66.10;;;;;;5044369;28;20041;-71
2022/06/12 03:05:32;;;;;;;2.35;0.73;;;19.40;66.60;;;;;;5057698;28;20021;-65
2022/06/12 03:08:03;;;;;;;2.22;0.90;;;19.60;66.40;;;;;;5075547;28;20424;-65
2022/06/12 03:10:39;;;;;;;2.22;0.77;;;19.70;66.20;;;;;;5063683;28;20025;-64
2022/06/12 03:13:09;;;;;;;2.55;0.40;;;19.90;66.30;;;;;;5061710;28;20028;-67
2022/06/12 03:15:50;;;;;;;2.67;0.65;;;20.10;65.40;;;;;;5061342;28;20119;-72
2022/06/12 03:18:32;;;;;;;1.75;0.60;;;20.30;65.00;;;;;;5056300;28;20037;-73
2022/06/12 03:21:14;;;;;;;1.73;0.60;;;20.60;65.10;;;;;;5054890;28;20112;-68
2022/06/12 03:24:08;;;;;;;6.20;1.13;;;20.80;64.70;;;;;;5052493;28;20040;-68
2022/06/12 03:26:54;;;;;;;4.72;0.60;;;21.00;63.60;;;;;;5050901;28;20021;-65
2022/06/12 03:30:11;;;;;;;3.20;0.70;;;20.90;63.20;;;;;;5050693;28;20036;-67
2022/06/12 03:32:53;;;;;;;3.70;0.60;;;20.90;64.40;;;;;;5033993;28;20029;-67
2022/06/12 03:35:33;;;;;;;6.18;1.05;;;21.30;63.20;;;;;;5051406;28;20025;-69
2022/06/12 03:38:21;;;;;;;2.90;0.60;;;21.60;62.80;;;;;;5037274;28;20128;-68
2022/06/12 03:40:57;;;;;;;2.53;0.65;;;21.90;62.20;;;;;;5053697;28;20470;-70
2022/06/12 03:43:51;;;;;;;2.40;0.50;;;22.30;61.70;;;;;;5053394;28;20025;-72
2022/06/12 03:46:25;;;;;;;3.83;0.75;;;22.30;60.90;;;;;;5052780;28;20021;-69
2022/06/12 03:49:38;;;;;;;0.90;0.40;;;22.30;61.10;;;;;;5043734;28;20546;-70
2022/06/12 03:52:36;;;;;;;2.72;0.50;;;22.30;61.30;;;;;;5010860;28;20053;-67
2022/06/12 03:55:16;;;;;;;2.42;0.75;;;22.40;61.00;;;;;;5012922;28;20042;-75
2022/06/12 03:57:52;;;;;;;1.75;0.50;;;22.40;61.30;;;;;;5014796;28;20133;-71
2022/06/12 04:00:25;;;;;;;1.48;0.55;;;22.40;61.10;;;;;;5050187;28;20533;-69
2022/06/12 04:03:04;;;;;;;1.40;0.55;;;22.40;61.00;;;;;;5012553;28;20022;-73
2022/06/12 04:05:53;;;;;;;0.90;0.40;;;21.90;61.70;;;;;;5013055;28;20076;-74
2022/06/12 04:08:30;;;;;;;1.00;0.50;;;21.30;62.30;;;;;;5021729;28;20017;-74
2022/06/12 04:10:58;;;;;;;0.95;0.57;;;20.60;63.80;;;;;;5049566;28;20037;-71
2022/06/12 04:13:25;;;;;;;4.28;0.55;;;20.00;64.80;;;;;;5041532;28;20037;-70
2022/06/12 04:16:17;;;;;;;0.85;0.30;;;19.40;65.80;;;;;;5053653;28;20075;-67
2022/06/12 04:18:45;;;;;;;0.87;0.50;;;19.00;67.20;;;;;;5042613;28;20034;-69
2022/06/12 04:21:19;;;;;;;1.05;0.40;;;18.50;67.90;;;;;;5033611;28;20593;-69
2022/06/12 04:24:05;;;;;;;1.25;0.40;;;18.30;68.60;;;;;;5034329;28;20026;-68
2022/06/12 04:26:47;;;;;;;1.23;0.40;;;18.00;69.00;;;;;;5045349;28;20037;-74
2022/06/12 04:29:14;;;;;;;1.88;0.50;;;17.90;69.90;;;;;;5047655;28;20035;-68
2022/06/12 04:31:45;;;;;;;2.30;0.43;;;17.70;69.90;;;;;;5053536;28;20501;-65
2022/06/12 04:34:15;;;;;;;2.75;0.50;;;17.60;70.60;;;;;;5053953;28;20074;-70
2022/06/12 04:36:45;;;;;;;1.90;1.25;;;17.50;71.10;;;;;;5054067;28;20461;-71
2022/06/12 04:39:16;;;;;;;1.85;0.55;;;17.50;71.20;;;;;;5044880;28;20607;-72
2022/06/12 04:41:44;;;;;;;1.33;0.50;;;17.40;71.40;;;;;;5051968;28;20021;-72
2022/06/12 04:44:12;;;;;;;1.15;1.05;;;17.40;71.90;;;;;;5047487;28;20025;-72
2022/06/12 04:46:42;;;;;;;2.13;0.60;;;17.40;71.50;;;;;;5052321;28;20419;-67
2022/06/12 04:49:16;;;;;;;2.10;0.60;;;17.40;72.20;;;;;;5038696;28;20013;-69
2022/06/12 04:51:44;;;;;;;1.17;0.60;;;17.50;72.50;;;;;;5044658;28;20048;-74
2022/06/12 04:54:12;;;;;;;1.00;0.47;;;17.50;72.60;;;;;;5053551;28;20052;-72
2022/06/12 04:56:39;;;;;;;1.35;0.50;;;17.50;71.40;;;;;;5053253;28;20373;-68
2022/06/12 04:59:07;;;;;;;0.98;0.50;;;17.40;71.70;;;;;;5052519;28;20041;-73
2022/06/12 05:01:35;;;;;;;2.10;0.50;;;17.40;72.60;;;;;;5052189;28;20025;-75
2022/06/12 05:04:05;;;;;;;1.38;0.50;;;17.30;72.10;;;;;;5052743;28;20032;-71
2022/06/12 05:06:33;;;;;;;1.05;0.43;;;17.30;71.90;;;;;;5053151;28;20421;-72
2022/06/12 05:09:01;;;;;;;1.73;0.70;;;17.30;72.00;;;;;;5068185;28;20474;-70
2022/06/12 05:11:28;;;;;;;3.38;0.60;;;17.30;72.40;;;;;;5042260;28;20055;-72
2022/06/12 05:13:56;;;;;;;2.58;0.50;;;17.40;72.50;;;;;;5052984;28;20047;-70
2022/06/12 05:16:30;;;;;;;2.50;0.65;;;17.40;72.30;;;;;;5052983;28;20428;-68
2022/06/12 05:18:58;;;;;;;1.48;0.40;;;17.30;72.60;;;;;;5053093;28;20033;-68
2022/06/12 05:21:27;;;;;;;1.05;0.47;;;17.20;72.20;;;;;;5034814;28;20025;-70
2022/06/12 05:23:56;;;;;;;1.70;0.52;;;17.20;72.60;;;;;;5044462;28;20465;-71
2022/06/12 05:26:24;;;;;;;4.03;0.60;;;17.20;73.00;;;;;;5052569;28;20025;-76
2022/06/12 05:28:52;;;;;;;0.73;0.70;;;17.20;73.10;;;;;;5053661;28;20481;-74
2022/06/12 05:31:19;;;;;;;1.85;0.50;;;17.30;73.10;;;;;;5049168;28;20108;-71
2022/06/12 05:33:47;;;;;;;1.73;0.43;;;17.40;72.50;;;;;;5045306;28;20032;-74
2022/06/12 05:36:16;;;;;;;1.33;0.55;;;17.60;72.60;;;;;;5033054;28;20036;-71
2022/06/12 05:38:45;;;;;;;1.00;0.60;;;17.80;72.50;;;;;;5030831;28;20037;-73
2022/06/12 05:41:14;;;;;;;1.75;0.52;;;17.80;71.70;;;;;;5033271;28;20037;-69
2022/06/12 05:43:42;;;;;;;1.77;0.50;;;17.70;72.50;;;;;;5034646;28;20062;-68
2022/06/12 05:46:14;;;;;;;3.28;0.60;;;17.70;72.00;;;;;;5031305;28;20053;-70
2022/06/12 05:48:42;;;;;;;3.42;0.60;;;17.60;72.80;;;;;;5036941;28;20460;-68
2022/06/12 05:51:13;;;;;;;1.83;0.63;;;17.60;73.10;;;;;;5031508;28;20021;-73
2022/06/12 05:53:41;;;;;;;2.53;0.60;;;17.70;73.40;;;;;;5038112;28;20398;-67
2022/06/12 05:56:11;;;;;;;0.82;0.50;;;17.70;72.60;;;;;;5031146;28;20020;-74
2022/06/12 05:58:40;;;;;;;4.32;0.60;;;17.90;72.40;;;;;;5029845;28;20083;-69
2022/06/12 06:01:10;;;;;;;0.43;0.40;;;17.90;71.70;;;;;;5031262;28;20021;-66
2022/06/12 06:03:38;;;;;;;1.73;0.50;;;17.90;71.60;;;;;;5047878;28;20071;-68
2022/06/12 06:06:07;;;;;;;1.10;0.50;;;18.00;72.40;;;;;;5032780;28;20484;-69
2022/06/12 06:08:35;;;;;;;1.85;0.50;;;18.10;72.00;;;;;;5038414;28;20028;-71
2022/06/12 06:11:03;;;;;;;2.47;0.52;;;18.00;71.60;;;;;;5050570;28;20024;-73
2022/06/12 06:13:30;;;;;;;2.88;0.60;;;17.80;72.60;;;;;;5048963;28;20500;-70
2022/06/12 06:15:57;;;;;;;2.95;0.95;;;17.40;72.70;;;;;;5050766;28;20033;-68
2022/06/12 06:18:25;;;;;;;3.92;0.70;;;17.20;73.60;;;;;;5051772;28;20389;-71
2022/06/12 06:20:52;;;;;;;2.05;0.75;;;17.00;74.30;;;;;;5052224;28;20076;-71
2022/06/12 06:23:20;;;;;;;1.85;0.70;;;16.70;74.90;;;;;;5044503;28;20017;-70
2022/06/12 06:25:47;;;;;;;1.33;0.60;;;16.50;75.40;;;;;;5031407;28;20033;-68
2022/06/12 06:28:15;;;;;;;3.15;0.70;;;16.30;76.60;;;;;;5035761;28;20025;-72
2022/06/12 06:30:43;;;;;;;2.13;0.65;;;16.10;76.70;;;;;;5032858;28;20025;-69
2022/06/12 06:33:11;;;;;;;1.08;0.57;;;16.00;77.60;;;;;;5028528;28;20088;-68
2022/06/12 06:35:39;;;;;;;1.90;0.57;;;15.80;76.90;;;;;;5029901;28;20032;-72
2022/06/12 06:38:07;;;;;;;4.18;0.73;;;15.70;76.90;;;;;;5030389;28;20037;-68
2022/06/12 06:40:35;;;;;;;0.98;0.52;;;15.50;77.50;;;;;;5031346;28;20056;-71
2022/06/12 06:43:02;;;;;;;2.25;0.82;;;15.40;77.80;;;;;;5030821;28;20175;-70
2022/06/12 06:48:15;;;;;;;1.83;0.70;;;15.20;78.60;;;;;;5029056;28;20049;-67
2022/06/12 06:50:43;;;;;;;2.35;0.65;;;15.10;79.20;;;;;;5030529;28;20025;-74
2022/06/12 06:53:11;;;;;;;1.75;0.85;;;15.00;79.60;;;;;;5030305;28;20109;-74
2022/06/12 06:55:39;;;;;;;2.30;0.68;;;14.90;79.70;;;;;;5030836;28;20466;-70
2022/06/12 06:58:09;;;;;;;1.38;0.70;;;14.80;80.10;;;;;;5030176;28;20116;-72
2022/06/12 07:00:38;;;;;;;1.50;0.70;;;14.80;80.30;;;;;;5033475;28;20033;-72
2022/06/12 07:03:06;;;;;;;1.95;0.60;;;14.70;80.40;;;;;;5033193;28;20025;-74
2022/06/12 07:05:34;;;;;;;3.22;0.73;;;14.60;80.60;;;;;;5032994;28;20115;-75
2022/06/12 07:08:02;;;;;;;1.35;0.60;;;14.60;80.70;;;;;;5030437;28;20029;-72
2022/06/12 07:10:32;;;;;;;1.75;0.63;;;14.50;81.20;;;;;;5033066;28;20017;-68
2022/06/12 07:13:00;;;;;;;1.73;0.50;;;14.40;81.10;;;;;;5036975;28;20021;-73
2022/06/12 07:15:30;;;;;;;0.43;0.40;;;14.40;81.20;;;;;;5037825;28;20030;-74
2022/06/12 07:17:58;;;;;;;2.38;0.50;;;14.30;81.10;;;;;;5033956;28;20013;-69
2022/06/12 07:20:32;;;;;;;2.67;0.98;;;14.30;81.40;;;;;;5044788;28;20389;-74
2022/06/12 07:22:59;;;;;;;4.60;0.70;;;14.30;81.60;;;;;;5037836;28;20024;-71
2022/06/12 07:25:27;;;;;;;2.80;0.60;;;14.20;81.70;;;;;;5037235;28;20100;-71
2022/06/12 07:27:54;;;;;;;2.92;1.40;;;14.20;82.00;;;;;;5050920;28;20022;-71
2022/06/12 07:30:23;;;;;;;2.00;0.70;;;14.20;82.30;;;;;;5054852;28;20024;-74
2022/06/12 07:32:51;;;;;;;1.38;0.65;;;14.10;82.40;;;;;;5054420;28;20033;-71
2022/06/12 07:35:19;;;;;;;1.55;0.80;;;14.10;82.40;;;;;;5054749;28;20108;-72
2022/06/12 07:37:48;;;;;;;1.95;0.77;;;14.00;82.80;;;;;;5054367;28;20025;-69
2022/06/12 07:40:23;;;;;;;1.75;0.70;;;14.00;83.00;;;;;;5054619;28;20029;-71
2022/06/12 07:42:51;;;;;;;4.22;0.90;;;14.00;83.20;;;;;;5034872;28;20025;-74
2022/06/12 07:45:18;;;;;;;2.92;0.70;;;13.90;83.20;;;;;;5053152;28;20124;-69
2022/06/12 07:47:46;;;;;;;2.28;1.05;;;13.90;83.20;;;;;;5055377;28;20021;-69
2022/06/12 07:50:15;;;;;;;1.08;0.98;;;13.90;83.40;;;;;;5055460;28;20025;-70
2022/06/12 07:52:44;;;;;;;3.22;0.82;;;13.80;83.50;;;;;;5054486;28;20040;-69
2022/06/12 07:55:17;;;;;;;1.85;0.88;;;13.80;83.80;;;;;;5045373;28;20102;-67
2022/06/12 07:57:45;;;;;;;3.28;0.90;;;13.80;83.90;;;;;;5054577;28;20025;-72
2022/06/12 08:00:14;;;;;;;1.08;0.90;;;13.80;83.90;;;;;;5054695;28;20048;-68
2022/06/12 08:02:43;;;;;;;3.90;1.00;;;13.70;84.30;;;;;;5054458;28;20478;-68
2022/06/12 08:05:11;;;;;;;1.48;0.90;;;13.70;84.40;;;;;;5053492;28;20087;-66
2022/06/12 08:07:38;;;;;;;1.33;0.85;;;13.70;84.60;;;;;;5053826;28;20025;-70
2022/06/12 08:10:07;;;;;;;1.55;0.85;;;13.60;84.80;;;;;;5054513;28;20048;-70
2022/06/12 08:12:39;;;;;;;1.52;0.90;;;13.60;85.00;;;;;;5054086;28;20025;-72
2022/06/12 08:15:10;;;;;;;2.17;0.80;;;13.70;84.90;;;;;;5053814;28;20351;-74
2022/06/12 08:17:37;;;;;;;3.63;0.70;;;13.60;85.00;;;;;;5053770;28;20025;-67
2022/06/12 08:22:55;;;;;;;1.20;0.65;;;13.50;85.40;;;;;;5053725;28;20031;-71
2022/06/12 08:25:23;;;;;;;2.40;0.68;;;13.50;85.70;;;;;;5054001;28;20071;-70
2022/06/12 08:27:51;;;;;;;1.58;0.70;;;13.40;85.80;;;;;;5054127;28;20025;-68
2022/06/12 08:30:19;;;;;;;2.40;1.25;;;13.40;86.30;;;;;;5053722;28;20029;-71
2022/06/12 08:32:49;;;;;;;2.35;0.70;;;13.40;87.00;;;;;;5053383;28;20032;-72
2022/06/12 08:35:24;;;;;;;1.92;0.65;;;13.30;86.60;;;;;;5053556;28;20163;-69
2022/06/12 08:37:52;;;;;;;0.88;0.70;;;13.30;86.50;;;;;;5053401;28;20017;-73
2022/06/12 08:40:35;;;;;;;1.52;0.90;;;13.30;86.70;;;;;;5053796;28;20028;-70
2022/06/12 08:43:35;;;;;;;0.90;0.60;;;13.30;86.90;;;;;;5053743;28;20049;-73
2022/06/12 08:46:47;;;;;;;1.50;0.70;;;13.20;86.80;;;;;;5012039;28;20037;-76
2022/06/12 08:49:35;;;;;;;1.67;1.20;;;13.20;87.20;;;;;;5053304;28;20568;-76
2022/06/12 08:52:22;;;;;;;1.70;0.82;;;13.20;87.20;;;;;;5053449;28;20055;-75
2022/06/12 08:55:12;;;;;;;1.38;0.63;;;13.20;87.40;;;;;;5045981;28;20068;-76
2022/06/12 08:58:09;;;;;;;1.42;0.70;;;13.20;87.60;;;;;;5018635;28;20033;-71
2022/06/12 09:00:39;;;;;;;1.88;0.68;;;13.10;87.80;;;;;;5032671;28;20518;-77
2022/06/12 09:03:09;;;;;;;1.90;0.70;;;13.10;88.00;;;;;;5031970;28;20022;-74
2022/06/12 09:05:51;;;;;;;1.52;0.70;;;13.00;88.10;;;;;;5047742;28;20032;-75
2022/06/12 09:08:30;;;;;;;1.50;1.00;;;13.00;88.50;;;;;;5053322;28;20087;-74
2022/06/12 09:11:30;;;;;;;1.90;1.13;;;13.00;88.50;;;;;;5053383;28;20061;-72
2022/06/12 09:14:18;;;;;;;1.33;0.80;;;12.90;89.00;;;;;;5053536;28;20036;-73
2022/06/12 09:17:22;;;;;;;2.78;1.00;;;12.90;88.80;;;;;;5052607;28;20021;-70
2022/06/12 09:19:59;;;;;;;1.92;0.82;;;12.90;89.00;;;;;;5049981;28;20025;-70
2022/06/12 09:22:36;;;;;;;1.67;0.80;;;12.90;89.10;;;;;;5050362;28;20056;-71
2022/06/12 09:25:20;;;;;;;2.95;0.88;;;12.90;89.10;;;;;;5050180;28;20122;-73
2022/06/12 09:27:52;;;;;;;1.92;0.93;;;12.90;89.30;;;;;;5051298;28;20025;-72
2022/06/12 09:30:25;;;;;;;1.10;0.90;;;12.90;89.50;;;;;;5051824;28;20025;-70
2022/06/12 09:33:09;;;;;;;2.15;0.93;;;12.90;89.40;;;;;;5067244;28;20021;-74
2022/06/12 09:35:52;;;;;;;1.67;0.85;;;12.80;89.70;;;;;;5052452;28;20029;-77
2022/06/12 09:38:52;;;;;;;2.38;0.88;;;12.80;90.00;;;;;;5052961;28;20179;-69
2022/06/12 09:41:41;;;;;;;1.15;0.70;;;12.80;89.80;;;;;;5052585;28;20525;-72
2022/06/12 09:44:23;;;;;;;1.73;0.80;;;12.80;89.70;;;;;;5049625;28;20477;-73
2022/06/12 09:47:35;;;;;;;1.45;1.10;;;12.80;89.90;;;;;;5052990;28;20427;-74
2022/06/12 09:50:28;;;;;;;1.33;0.75;;;12.70;90.00;;;;;;5042553;28;20029;-72
2022/06/12 09:53:17;;;;;;;1.38;1.02;;;12.70;90.10;;;;;;5052954;28;20036;-75
2022/06/12 09:55:56;;;;;;;1.70;0.90;;;12.70;90.30;;;;;;5052675;28;20052;-74
2022/06/12 09:58:29;;;;;;;1.52;0.80;;;12.60;90.30;;;;;;5052676;28;20090;-74
2022/06/12 10:01:06;;;;;;;2.67;1.02;;;12.60;90.40;;;;;;5052794;28;20025;-76
2022/06/12 10:03:42;;;;;;;2.13;0.70;;;12.50;90.50;;;;;;5053306;28;20022;-73
2022/06/12 10:06:36;;;;;;;1.30;0.70;;;12.50;90.50;;;;;;5052500;28;20025;-74
2022/06/12 10:09:24;;;;;;;1.35;0.88;;;12.50;90.60;;;;;;5052257;28;20017;-72
2022/06/12 10:12:04;;;;;;;1.25;0.80;;;12.50;90.70;;;;;;5052310;28;20029;-72
2022/06/12 10:14:45;;;;;;;2.10;0.85;;;12.40;90.80;;;;;;5052678;28;20124;-73
2022/06/12 10:17:35;;;;;;;1.40;0.60;;;12.40;90.90;;;;;;5078619;28;20051;-68
2022/06/12 10:20:10;;;;;;;1.92;0.70;;;12.40;90.90;;;;;;5052277;28;20037;-70
2022/06/12 10:22:44;;;;;;;1.40;0.75;;;12.40;91.10;;;;;;5052155;28;20021;-65
2022/06/12 10:25:33;;;;;;;1.35;0.80;;;12.30;90.90;;;;;;5052549;28;20025;-69
2022/06/12 10:28:06;;;;;;;3.80;0.88;;;12.40;91.00;;;;;;5052028;28;20104;-68
2022/06/12 10:30:41;;;;;;;1.08;0.77;;;12.30;91.10;;;;;;5052058;28;20020;-74
2022/06/12 10:33:16;;;;;;;1.35;0.90;;;12.20;91.20;;;;;;5051775;28;20037;-72
2022/06/12 10:36:00;;;;;;;4.35;1.58;;;12.30;91.40;;;;;;5052040;28;20021;-73
2022/06/12 10:38:34;;;;;;;3.05;1.00;;;12.20;91.30;;;;;;5052394;28;20017;-69
2022/06/12 10:41:03;;;;;;;2.40;1.17;;;12.30;91.50;;;;;;5051958;28;20037;-71
2022/06/12 10:43:43;;;;;;;2.13;1.00;;;12.20;91.40;;;;;;5052215;28;20017;-69
2022/06/12 10:46:30;;;;;;;2.13;0.70;;;12.20;91.40;;;;;;5051606;28;20032;-74
2022/06/12 10:49:26;;;;;;;1.48;0.93;;;12.20;91.50;;;;;;5051766;28;20116;-69
2022/06/12 10:52:07;;;;;;;1.27;0.80;;;12.10;91.60;;;;;;5049946;28;20103;-70
2022/06/12 10:54:35;;;;;;;1.85;0.98;;;12.10;91.80;;;;;;5051809;28;20041;-73
2022/06/12 10:57:11;;;;;;;2.90;1.48;;;12.00;91.80;;;;;;5052006;28;20025;-68
2022/06/12 10:59:51;;;;;;;2.45;1.45;;;12.00;91.90;;;;;;5051564;28;20029;-70
2022/06/12 11:02:37;;;;;;;3.53;1.15;;;12.00;91.90;;;;;;5050942;28;20442;-64
2022/06/12 11:05:13;;;;;;;1.38;1.10;;;12.00;92.00;;;;;;5032848;28;20032;-71
2022/06/12 11:07:56;;;;;;;2.55;1.00;;;12.00;92.00;;;;;;5051637;28;20025;-71
2022/06/12 11:10:28;;;;;;;2.00;1.05;;;12.00;92.20;;;;;;5051227;28;20021;-71
2022/06/12 11:13:27;;;;;;;3.83;1.73;;;12.00;92.20;;;;;;5038579;28;20033;-65
2022/06/12 11:16:22;;;;;;;2.63;1.17;;;12.00;92.30;;;;;;5051514;28;20025;-67
2022/06/12 11:19:11;;;;;;;2.88;1.13;;;11.90;92.30;;;;;;5050972;28;20100;-64
2022/06/12 11:22:06;;;;;;;2.33;1.20;;;12.00;92.30;;;;;;5049867;28;20496;-64
2022/06/12 11:24:55;;;;;;;2.55;1.40;;;12.00;92.40;;;;;;5051893;28;20053;-69
2022/06/12 11:27:37;;;;;;;2.15;1.25;;;11.90;92.50;;;;;;5051443;28;20029;-71
2022/06/12 11:30:12;;;;;;;3.28;1.40;;;11.90;92.40;;;;;;5051807;28;20029;-66
2022/06/12 11:32:57;;;;;;;2.63;1.33;;;11.80;92.50;;;;;;5051996;28;20048;-73
2022/06/12 11:35:49;;;;;;;2.15;1.30;;;11.90;92.80;;;;;;5052030;28;20025;-71
2022/06/12 11:38:42;;;;;;;3.38;1.52;;;11.80;92.60;;;;;;5052152;28;20385;-68
2022/06/12 11:41:24;;;;;;;1.80;1.40;;;11.70;92.70;;;;;;5052734;28;20018;-69
2022/06/12 11:44:06;;;;;;;2.55;1.45;;;11.70;92.90;;;;;;5052843;28;20024;-64
2022/06/12 11:46:52;;;;;;;3.42;2.13;;;11.60;93.00;;;;;;5057289;28;20088;-65
2022/06/12 11:49:47;;;;;;;3.70;1.80;;;11.60;93.00;;;;;;5058335;28;20055;-64
2022/06/12 11:52:41;;;;;;;3.05;1.80;;;11.60;93.10;;;;;;5057669;28;20081;-62
2022/06/12 11:55:20;;;;;;;3.42;1.92;;;11.60;93.40;;;;;;5056295;28;20067;-62
2022/06/12 11:57:50;;;;;;;2.58;1.40;;;11.50;93.40;;;;;;5065171;28;20080;-62
2022/06/12 12:00:27;;;;;;;2.60;1.70;;;11.50;93.50;;;;;;5058069;28;20071;-64
2022/06/12 12:03:11;;;;;;;4.03;1.60;;;11.50;93.50;;;;;;5061672;28;20021;-69
2022/06/12 12:05:46;;;;;;;2.63;1.48;;;11.40;93.40;;;;;;5058567;28;20484;-69
2022/06/12 12:08:26;;;;;;;2.58;1.58;;;11.40;93.60;;;;;;5056382;28;20031;-70
2022/06/12 12:10:59;;;;;;;2.50;1.40;;;11.40;93.60;;;;;;5056182;28;20021;-70
2022/06/12 12:13:41;;;;;;;2.75;1.45;;;11.30;93.80;;;;;;5053459;28;20060;-72
2022/06/12 12:16:45;;;;;;;3.85;1.40;;;11.30;93.70;;;;;;5053143;28;20040;-65
2022/06/12 12:19:24;;;;;;;2.42;1.20;;;11.30;93.80;;;;;;5015002;28;20398;-69
2022/06/12 12:21:57;;;;;;;2.60;1.60;;;11.20;93.70;;;;;;5015079;28;20026;-71
2022/06/12 12:24:42;;;;;;;2.03;1.17;;;11.20;93.80;;;;;;5019431;28;20030;-69
2022/06/12 12:27:18;;;;;;;2.72;1.30;;;11.20;93.80;;;;;;5039036;28;20025;-73
2022/06/12 12:29:46;;;;;;;2.65;1.35;;;11.20;93.90;;;;;;5031248;28;20104;-66
2022/06/12 12:32:14;;;;;;;2.92;1.40;;;11.30;93.90;;;;;;5033925;28;20030;-68
2022/06/12 12:34:42;;;;;;;2.63;1.60;;;11.20;93.80;;;;;;5035356;28;20022;-69
2022/06/12 12:42:44;;;;;;;2.97;1.45;;;11.10;94.00;;;;;;5028336;28;20020;-71
2022/06/12 12:45:24;;;;;;;2.13;1.23;;;11.10;94.00;;;;;;5034058;28;20029;-70
2022/06/12 12:48:17;;;;;;;2.88;1.23;;;11.10;94.10;;;;;;5034406;28;20369;-68
2022/06/12 12:50:54;;;;;;;1.90;1.20;;;11.10;94.20;;;;;;5033191;28;20037;-69
2022/06/12 12:53:26;;;;;;;2.08;1.10;;;11.00;94.30;;;;;;5034455;28;20075;-68
2022/06/12 12:56:02;;;;;;;2.33;1.10;;;11.00;94.50;;;;;;5033159;28;20060;-69
2022/06/12 12:58:31;;;;;;;5.22;1.60;;;11.00;94.50;;;;;;5031465;28;20029;-70
2022/06/12 13:01:19;;;;;;;3.10;1.10;;;11.00;94.90;;;;;;5032590;28;20081;-71
2022/06/12 13:03:50;;;;;;;4.30;2.45;;;10.90;94.60;;;;;;5028600;28;20076;-72
2022/06/12 13:06:58;;;;;;;2.80;1.50;;;10.90;94.80;;;;;;5041052;28;20060;-73
2022/06/12 13:09:34;;;;;;;2.75;1.92;;;10.90;94.60;;;;;;5043321;28;20029;-68
2022/06/12 13:12:33;;;;;;;2.65;1.38;;;10.90;94.60;;;;;;5031074;28;20386;-71
2022/06/12 13:15:19;;;;;;;3.00;1.90;;;10.80;94.80;;;;;;5031442;28;20030;-71
2022/06/12 13:18:16;;;;;;;3.67;1.30;;;10.80;94.70;;;;;;5031824;28;20156;-70
2022/06/12 13:21:33;;;;;;;2.72;2.15;;;10.80;94.80;;;;;;5035609;28;20030;-74
2022/06/12 13:24:00;;;;;;;2.35;1.50;;;10.80;94.90;;;;;;5012641;28;20034;-71
2022/06/12 13:26:30;;;;;;;2.70;1.52;;;10.80;95.10;;;;;;5031007;28;20021;-69
2022/06/12 13:29:01;;;;;;;2.85;1.70;;;10.80;95.00;;;;;;5032793;28;20022;-69
2022/06/12 13:31:33;;;;;;;2.55;1.30;;;10.70;95.00;;;;;;5031023;28;20025;-73
2022/06/12 13:34:03;;;;;;;4.63;1.98;;;10.70;95.00;;;;;;5028739;28;20026;-71
2022/06/12 13:36:37;;;;;;;2.15;1.13;;;10.70;95.10;;;;;;5030578;28;20026;-71
2022/06/12 13:39:17;;;;;;;3.03;1.45;;;10.60;95.10;;;;;;5031987;28;20110;-74
2022/06/12 13:41:50;;;;;;;2.03;1.40;;;10.60;95.20;;;;;;5032242;28;20025;-67
2022/06/12 13:44:21;;;;;;;;;;;10.60;95.30;;;;;;5032061;28;20026;-69
2022/06/12 13:46:49;;;;;;;4.05;1.20;;;10.60;95.50;;;;;;5027942;28;19916;-67
2022/06/12 13:49:44;;;;;;;3.85;2.45;;;10.50;95.60;;;;;;5030384;28;20021;-68
2022/06/12 13:52:30;;;;;;;4.85;1.73;;;10.40;95.60;;;;;;5029805;28;20021;-70
2022/06/12 13:54:57;;;;;;;2.90;1.77;;;10.40;95.70;;;;;;5029060;28;20050;-73
2022/06/12 13:57:34;;;;;;;4.15;2.10;;;10.30;95.90;;;;;;5032704;28;20025;-67